MDT,Max TemperatureF,Mean TemperatureF,Min TemperatureF,Max Dew PointF,MeanDew PointF,Min DewpointF,Max Humidity, Mean Humidity, Min Humidity, Max Sea Level PressureIn, Mean Sea Level PressureIn, Min Sea Level PressureIn, Max VisibilityMiles, Mean VisibilityMiles, Min VisibilityMiles, Max Wind SpeedMPH, Mean Wind SpeedMPH, Max Gust SpeedMPH,PrecipitationIn, CloudCover, Events, WindDirDegrees
2011-10-1,93,70,47,40,33,26,61,36,10,30.03,29.90,29.83,10,10,10,15,4,21,0.00,0,,141
2011-10-2,87,67,47,46,38,32,66,41,16,30.04,29.93,29.83,10,10,10,32,4,43,T,1,,278
2011-10-3,86,66,46,44,38,33,71,44,16,30.10,29.96,29.81,10,10,10,14,4,18,0.00,0,,187
2011-10-4,86,66,45,46,38,36,71,45,18,29.86,29.70,29.57,10,10,10,25,5,30,0.00,0,,268
2011-10-5,81,68,54,43,38,32,47,34,21,29.65,29.46,29.32,10,10,10,21,5,25,0.00,1,,135
2011-10-6,68,58,48,52,45,35,89,64,39,29.49,29.41,29.30,10,9,2,28,10,35,0.74,6,Rain-Thunderstorm,305
2011-10-7,54,49,43,46,44,39,93,82,71,29.99,29.56,29.35,10,7,2,23,9,30,1.79,8,Rain,300
2011-10-8,52,45,38,45,39,35,93,74,54,30.33,30.17,29.99,10,10,6,25,11,30,0.23,7,Rain,307
2011-10-9,59,47,35,38,35,30,86,60,33,30.30,30.09,29.92,10,10,10,17,4,20,0.00,3,,126
2011-10-10,68,51,33,37,31,25,89,56,22,29.90,29.80,29.70,10,10,10,13,2,17,0.00,0,,334
2011-10-11,68,55,41,42,36,31,82,54,26,29.86,29.72,29.63,10,10,9,31,6,36,0.01,5,Rain,289
2011-10-12,62,48,34,36,29,25,82,53,23,30.06,30.01,29.87,10,10,10,28,9,36,0.00,2,,285
2011-10-13,60,45,30,36,31,27,85,59,33,30.11,30.06,30.02,10,10,10,20,5,22,0.00,3,,328
2011-10-14,57,46,34,36,34,31,89,65,40,30.18,30.08,29.97,10,10,10,14,4,24,T,4,,139
2011-10-15,64,48,31,39,35,28,92,67,42,30.13,29.98,29.85,10,10,10,30,9,33,T,4,Rain,303
2011-10-16,57,49,41,44,38,34,86,67,47,30.17,30.06,29.94,10,10,8,20,7,24,0.11,6,Rain,163
2011-10-17,54,47,39,43,34,27,92,64,35,30.30,30.20,30.00,10,9,5,28,14,36,0.25,5,Rain,313
2011-10-18,57,44,30,31,29,25,82,56,30,30.43,30.35,30.27,10,10,10,21,8,24,0.00,2,,306
2011-10-19,66,46,26,37,29,23,85,54,22,30.25,30.04,29.88,10,10,10,17,3,23,0.00,0,,125
2011-10-20,69,53,37,40,34,29,82,55,27,30.04,29.97,29.88,10,10,10,18,4,25,0.00,0,,274
2011-10-21,59,49,39,43,39,32,89,70,51,30.18,30.13,30.04,10,10,10,13,4,15,0.01,5,Rain,234
2011-10-22,66,53,40,43,37,28,89,58,26,30.12,30.06,30.00,10,10,10,17,3,25,0.00,2,,297
2011-10-23,62,50,37,41,36,32,85,64,42,30.06,30.03,29.99,10,10,10,10,5,13,0.00,3,,203
2011-10-24,60,46,32,40,36,30,92,69,46,30.05,29.95,29.81,10,10,9,26,7,30,0.19,2,Rain,317
2011-10-25,45,36,26,36,29,23,89,67,45,30.37,30.21,30.06,10,10,9,25,11,31,0.03,6,Rain,316
2011-10-26,46,34,21,24,21,16,88,64,40,30.40,30.28,30.11,10,10,10,8,2,12,0.00,1,,200
2011-10-27,53,39,24,26,21,16,81,54,26,30.24,30.12,30.01,10,10,10,28,6,35,0.00,3,,317
2011-10-28,53,38,23,27,22,18,78,52,26,30.33,30.17,29.93,10,10,10,10,4,15,0.00,1,,188
2011-10-29,62,47,31,38,28,22,85,54,22,30.14,29.95,29.79,10,10,10,38,8,49,0.01,4,,304
2011-10-30,58,44,29,28,25,21,75,51,27,30.23,30.11,29.98,10,10,10,12,4,12,0.00,0,,215
2011-10-31,69,52,34,40,34,26,86,57,27,30.08,29.92,29.75,10,10,6,33,6,39,0.35,5,Rain,306